sensor_id;sensor_type;location;lat;lon;timestamp;pressure;altitude;pressure_sealevel;temperature;humidity
62800;BME280;48842;51.046;13.796;2024-02-26T00:01:19;99135.41;;;7.41;nan
62800;BME280;48842;51.046;13.796;2024-02-26T00:03:44;99136.28;;;7.40;nan
62800;BME280;48842;51.046;13.796;2024-02-26T00:06:12;99137.16;;;7.38;nan
62800;BME280;48842;51.046;13.796;2024-02-26T00:08:37;99128.47;;;7.34;nan
62800;BME280;48842;51.046;13.796;2024-02-26T00:11:02;99119.81;;;7.32;nan
62800;BME280;48842;51.046;13.796;2024-02-26T00:13:29;99120.69;;;7.31;nan
62800;BME280;48842;51.046;13.796;2024-02-26T00:15:54;99111.13;;;7.30;nan
62800;BME280;48842;51.046;13.796;2024-02-26T00:18:20;99127.63;;;7.29;nan
62800;BME280;48842;51.046;13.796;2024-02-26T00:20:45;99127.66;;;7.27;nan
62800;BME280;48842;51.046;13.796;2024-02-26T00:23:10;99118.94;;;7.28;nan
62800;BME280;48842;51.046;13.796;2024-02-26T00:25:35;99125.91;;;7.28;nan
62800;BME280;48842;51.046;13.796;2024-02-26T00:28:03;99123.28;;;7.26;nan
62800;BME280;48842;51.046;13.796;2024-02-26T00:30:28;99123.31;;;7.25;nan
62800;BME280;48842;51.046;13.796;2024-02-26T00:32:53;99118.97;;;7.21;nan
62800;BME280;48842;51.046;13.796;2024-02-26T00:35:19;99118.13;;;7.19;nan
62800;BME280;48842;51.046;13.796;2024-02-26T00:37:45;99121.59;;;7.14;nan
62800;BME280;48842;51.046;13.796;2024-02-26T00:40:11;99112.91;;;7.09;nan
62800;BME280;48842;51.046;13.796;2024-02-26T00:42:36;99112.06;;;7.07;nan
62800;BME280;48842;51.046;13.796;2024-02-26T00:45:01;99112.91;;;7.06;nan
62800;BME280;48842;51.046;13.796;2024-02-26T00:47:26;99109.47;;;7.04;nan
62800;BME280;48842;51.046;13.796;2024-02-26T00:49:52;99105.13;;;7.03;nan
62800;BME280;48842;51.046;13.796;2024-02-26T00:52:17;99101.66;;;7.06;nan
62800;BME280;48842;51.046;13.796;2024-02-26T00:54:42;99105.97;;;7.05;nan
62800;BME280;48842;51.046;13.796;2024-02-26T00:57:07;99103.38;;;7.05;nan
62800;BME280;48842;51.046;13.796;2024-02-26T00:59:32;99100.75;;;7.05;nan
62800;BME280;48842;51.046;13.796;2024-02-26T01:01:58;99104.25;;;7.04;nan
62800;BME280;48842;51.046;13.796;2024-02-26T01:04:25;99095.56;;;7.02;nan
62800;BME280;48842;51.046;13.796;2024-02-26T01:06:50;99097.31;;;7.00;nan
62800;BME280;48842;51.046;13.796;2024-02-26T01:09:15;99092.09;;;7.06;nan
62800;BME280;48842;51.046;13.796;2024-02-26T01:11:42;99099.91;;;7.06;nan
62800;BME280;48842;51.046;13.796;2024-02-26T01:14:07;99095.56;;;7.05;nan
62800;BME280;48842;51.046;13.796;2024-02-26T01:16:32;99092.09;;;7.02;nan
62800;BME280;48842;51.046;13.796;2024-02-26T01:18:57;99091.25;;;7.01;nan
62800;BME280;48842;51.046;13.796;2024-02-26T01:21:23;99088.66;;;6.98;nan
62800;BME280;48842;51.046;13.796;2024-02-26T01:23:48;99093.84;;;6.96;nan
62800;BME280;48842;51.046;13.796;2024-02-26T01:26:13;99089.53;;;6.95;nan
62800;BME280;48842;51.046;13.796;2024-02-26T01:28:38;99086.94;;;6.94;nan
62800;BME280;48842;51.046;13.796;2024-02-26T01:31:04;99079.13;;;6.92;nan
62800;BME280;48842;51.046;13.796;2024-02-26T01:33:31;99075.63;;;6.92;nan
62800;BME280;48842;51.046;13.796;2024-02-26T01:35:57;99078.22;;;6.92;nan
62800;BME280;48842;51.046;13.796;2024-02-26T01:38:22;99065.22;;;6.90;nan
62800;BME280;48842;51.046;13.796;2024-02-26T01:40:47;99069.56;;;6.90;nan
62800;BME280;48842;51.046;13.796;2024-02-26T01:43:12;99060.91;;;6.91;nan
62800;BME280;48842;51.046;13.796;2024-02-26T01:45:38;99056.56;;;6.91;nan
62800;BME280;48842;51.046;13.796;2024-02-26T01:48:03;99053.97;;;6.90;nan
62800;BME280;48842;51.046;13.796;2024-02-26T01:50:28;99055.69;;;6.91;nan
62800;BME280;48842;51.046;13.796;2024-02-26T01:52:54;99052.22;;;6.90;nan
62800;BME280;48842;51.046;13.796;2024-02-26T01:55:22;99053.09;;;6.91;nan
62800;BME280;48842;51.046;13.796;2024-02-26T01:57:49;99047.91;;;6.91;nan
62800;BME280;48842;51.046;13.796;2024-02-26T02:00:17;99043.53;;;6.91;nan
62800;BME280;48842;51.046;13.796;2024-02-26T02:02:43;99040.94;;;6.88;nan
62800;BME280;48842;51.046;13.796;2024-02-26T02:05:12;99053.97;;;6.87;nan
62800;BME280;48842;51.046;13.796;2024-02-26T02:07:37;99045.31;;;6.78;nan
62800;BME280;48842;51.046;13.796;2024-02-26T02:10:03;99038.38;;;6.74;nan
62800;BME280;48842;51.046;13.796;2024-02-26T02:12:28;99043.59;;;6.68;nan
62800;BME280;48842;51.046;13.796;2024-02-26T02:14:54;99044.44;;;6.64;nan
62800;BME280;48842;51.046;13.796;2024-02-26T02:17:20;99032.34;;;6.61;nan
62800;BME280;48842;51.046;13.796;2024-02-26T02:19:45;99032.31;;;6.60;nan
62800;BME280;48842;51.046;13.796;2024-02-26T02:22:11;99035.81;;;6.60;nan
62800;BME280;48842;51.046;13.796;2024-02-26T02:24:36;99038.41;;;6.59;nan
62800;BME280;48842;51.046;13.796;2024-02-26T02:27:02;99038.41;;;6.59;nan
62800;BME280;48842;51.046;13.796;2024-02-26T02:29:27;99033.19;;;6.59;nan
62800;BME280;48842;51.046;13.796;2024-02-26T02:31:53;99032.31;;;6.60;nan
62800;BME280;48842;51.046;13.796;2024-02-26T02:34:19;99033.19;;;6.62;nan
62800;BME280;48842;51.046;13.796;2024-02-26T02:37:02;99028.84;;;6.61;nan
62800;BME280;48842;51.046;13.796;2024-02-26T02:39:28;99031.47;;;6.58;nan
62800;BME280;48842;51.046;13.796;2024-02-26T02:41:53;99029.72;;;6.55;nan
62800;BME280;48842;51.046;13.796;2024-02-26T02:44:18;99021.06;;;6.52;nan
62800;BME280;48842;51.046;13.796;2024-02-26T02:46:43;99027.13;;;6.51;nan
62800;BME280;48842;51.046;13.796;2024-02-26T02:49:09;99018.47;;;6.49;nan
62800;BME280;48842;51.046;13.796;2024-02-26T02:51:35;99022.78;;;6.48;nan
62800;BME280;48842;51.046;13.796;2024-02-26T02:54:01;99031.47;;;6.49;nan
62800;BME280;48842;51.046;13.796;2024-02-26T02:56:26;99029.75;;;6.47;nan
62800;BME280;48842;51.046;13.796;2024-02-26T02:58:51;99025.41;;;6.48;nan
62800;BME280;48842;51.046;13.796;2024-02-26T03:01:16;99031.47;;;6.49;nan
62800;BME280;48842;51.046;13.796;2024-02-26T03:03:42;99026.28;;;6.49;nan
62800;BME280;48842;51.046;13.796;2024-02-26T03:06:07;99028.88;;;6.49;nan
62800;BME280;48842;51.046;13.796;2024-02-26T03:08:32;99036.69;;;6.52;nan
62800;BME280;48842;51.046;13.796;2024-02-26T03:11:00;99034.06;;;6.52;nan
62800;BME280;48842;51.046;13.796;2024-02-26T03:13:26;99047.94;;;6.51;nan
62800;BME280;48842;51.046;13.796;2024-02-26T03:15:51;99047.94;;;6.47;nan
62800;BME280;48842;51.046;13.796;2024-02-26T03:18:16;99047.09;;;6.45;nan
62800;BME280;48842;51.046;13.796;2024-02-26T03:20:41;99039.25;;;6.42;nan
62800;BME280;48842;51.046;13.796;2024-02-26T03:23:07;99036.66;;;6.41;nan
62800;BME280;48842;51.046;13.796;2024-02-26T03:25:34;99046.22;;;6.40;nan
62800;BME280;48842;51.046;13.796;2024-02-26T03:28:00;99044.47;;;6.38;nan
62800;BME280;48842;51.046;13.796;2024-02-26T03:30:25;99049.69;;;6.36;nan
62800;BME280;48842;51.046;13.796;2024-02-26T03:32:50;99054.88;;;6.35;nan
62800;BME280;48842;51.046;13.796;2024-02-26T03:35:16;99054.03;;;6.34;nan
62800;BME280;48842;51.046;13.796;2024-02-26T03:37:41;99053.13;;;6.32;nan
62800;BME280;48842;51.046;13.796;2024-02-26T03:40:07;99055.75;;;6.32;nan
62800;BME280;48842;51.046;13.796;2024-02-26T03:42:32;99063.53;;;6.34;nan
62800;BME280;48842;51.046;13.796;2024-02-26T03:44:57;99061.81;;;6.36;nan
62800;BME280;48842;51.046;13.796;2024-02-26T03:47:22;99068.78;;;6.35;nan
62800;BME280;48842;51.046;13.796;2024-02-26T03:49:48;99067.88;;;6.33;nan
62800;BME280;48842;51.046;13.796;2024-02-26T03:52:13;99068.75;;;6.32;nan
62800;BME280;48842;51.046;13.796;2024-02-26T03:54:40;99067.03;;;6.29;nan
62800;BME280;48842;51.046;13.796;2024-02-26T03:57:05;99067.88;;;6.27;nan
62800;BME280;48842;51.046;13.796;2024-02-26T03:59:30;99067.00;;;6.25;nan
62800;BME280;48842;51.046;13.796;2024-02-26T04:01:55;99065.28;;;6.24;nan
62800;BME280;48842;51.046;13.796;2024-02-26T04:04:20;99067.00;;;6.22;nan
62800;BME280;48842;51.046;13.796;2024-02-26T04:06:46;99067.88;;;6.22;nan
62800;BME280;48842;51.046;13.796;2024-02-26T04:09:14;99076.53;;;6.21;nan
62800;BME280;48842;51.046;13.796;2024-02-26T04:11:39;99078.28;;;6.19;nan
62800;BME280;48842;51.046;13.796;2024-02-26T04:14:04;99072.19;;;6.17;nan
62800;BME280;48842;51.046;13.796;2024-02-26T04:16:33;99080.00;;;6.16;nan
62800;BME280;48842;51.046;13.796;2024-02-26T04:18:58;99078.25;;;6.15;nan
62800;BME280;48842;51.046;13.796;2024-02-26T04:21:23;99085.19;;;6.13;nan
62800;BME280;48842;51.046;13.796;2024-02-26T04:23:49;99081.75;;;6.10;nan
62800;BME280;48842;51.046;13.796;2024-02-26T04:26:14;99084.34;;;6.10;nan
62800;BME280;48842;51.046;13.796;2024-02-26T04:28:39;99078.25;;;6.10;nan
62800;BME280;48842;51.046;13.796;2024-02-26T04:31:05;99083.47;;;6.08;nan
62800;BME280;48842;51.046;13.796;2024-02-26T04:33:30;99077.41;;;6.08;nan
62800;BME280;48842;51.046;13.796;2024-02-26T04:35:55;99081.72;;;6.04;nan
62800;BME280;48842;51.046;13.796;2024-02-26T04:38:20;99080.84;;;6.02;nan
62800;BME280;48842;51.046;13.796;2024-02-26T04:40:47;99083.44;;;6.01;nan
62800;BME280;48842;51.046;13.796;2024-02-26T04:43:12;99082.59;;;6.00;nan
62800;BME280;48842;51.046;13.796;2024-02-26T04:45:38;99086.06;;;5.99;nan
62800;BME280;48842;51.046;13.796;2024-02-26T04:48:03;99085.13;;;5.95;nan
62800;BME280;48842;51.046;13.796;2024-02-26T04:50:28;99086.88;;;5.95;nan
62800;BME280;48842;51.046;13.796;2024-02-26T04:52:54;99093.81;;;5.93;nan
62800;BME280;48842;51.046;13.796;2024-02-26T04:55:19;99086.00;;;5.91;nan
62800;BME280;48842;51.046;13.796;2024-02-26T04:57:44;99091.22;;;5.91;nan
62800;BME280;48842;51.046;13.796;2024-02-26T05:00:10;99082.53;;;5.91;nan
62800;BME280;48842;51.046;13.796;2024-02-26T05:02:36;99087.72;;;5.91;nan
62800;BME280;48842;51.046;13.796;2024-02-26T05:05:05;99087.72;;;5.91;nan
62800;BME280;48842;51.046;13.796;2024-02-26T05:07:30;99089.47;;;5.90;nan
62800;BME280;48842;51.046;13.796;2024-02-26T05:09:55;99094.66;;;5.89;nan
62800;BME280;48842;51.046;13.796;2024-02-26T05:12:21;99096.38;;;5.88;nan
62800;BME280;48842;51.046;13.796;2024-02-26T05:14:46;99092.91;;;5.86;nan
62800;BME280;48842;51.046;13.796;2024-02-26T05:17:11;99101.56;;;5.85;nan
62800;BME280;48842;51.046;13.796;2024-02-26T05:19:36;99115.44;;;5.84;nan
62800;BME280;48842;51.046;13.796;2024-02-26T05:22:02;99120.63;;;5.81;nan
62800;BME280;48842;51.046;13.796;2024-02-26T05:24:27;99112.81;;;5.80;nan
62800;BME280;48842;51.046;13.796;2024-02-26T05:26:53;99108.50;;;5.79;nan
62800;BME280;48842;51.046;13.796;2024-02-26T05:29:20;99107.59;;;5.76;nan
62800;BME280;48842;51.046;13.796;2024-02-26T05:31:45;99100.69;;;5.79;nan
62800;BME280;48842;51.046;13.796;2024-02-26T05:34:10;99111.09;;;5.82;nan
62800;BME280;48842;51.046;13.796;2024-02-26T05:36:35;99107.63;;;5.81;nan
62800;BME280;48842;51.046;13.796;2024-02-26T05:39:01;99109.34;;;5.81;nan
62800;BME280;48842;51.046;13.796;2024-02-26T05:41:29;99112.81;;;5.80;nan
62800;BME280;48842;51.046;13.796;2024-02-26T05:43:54;99115.41;;;5.78;nan
62800;BME280;48842;51.046;13.796;2024-02-26T05:46:20;99117.13;;;5.76;nan
62800;BME280;48842;51.046;13.796;2024-02-26T05:48:52;99119.72;;;5.74;nan
62800;BME280;48842;51.046;13.796;2024-02-26T05:51:18;99124.91;;;5.74;nan
62800;BME280;48842;51.046;13.796;2024-02-26T05:53:43;99121.47;;;5.72;nan
62800;BME280;48842;51.046;13.796;2024-02-26T05:56:09;99130.13;;;5.73;nan
62800;BME280;48842;51.046;13.796;2024-02-26T05:58:34;99122.31;;;5.71;nan
62800;BME280;48842;51.046;13.796;2024-02-26T06:00:59;99123.16;;;5.72;nan
62800;BME280;48842;51.046;13.796;2024-02-26T06:03:27;99127.50;;;5.70;nan
62800;BME280;48842;51.046;13.796;2024-02-26T06:05:52;99127.50;;;5.70;nan
62800;BME280;48842;51.046;13.796;2024-02-26T06:08:18;99127.50;;;5.71;nan
62800;BME280;48842;51.046;13.796;2024-02-26T06:10:43;99130.13;;;5.71;nan
62800;BME280;48842;51.046;13.796;2024-02-26T06:13:09;99124.06;;;5.72;nan
62800;BME280;48842;51.046;13.796;2024-02-26T06:15:34;99129.25;;;5.74;nan
62800;BME280;48842;51.046;13.796;2024-02-26T06:17:59;99130.97;;;5.78;nan
62800;BME280;48842;51.046;13.796;2024-02-26T06:20:25;99129.28;;;5.80;nan
62800;BME280;48842;51.046;13.796;2024-02-26T06:22:50;99131.03;;;5.84;nan
62800;BME280;48842;51.046;13.796;2024-02-26T06:25:16;99133.63;;;5.87;nan
62800;BME280;48842;51.046;13.796;2024-02-26T06:27:41;99130.19;;;5.90;nan
62800;BME280;48842;51.046;13.796;2024-02-26T06:30:06;99134.50;;;5.94;nan
62800;BME280;48842;51.046;13.796;2024-02-26T06:32:33;99132.78;;;5.96;nan
62800;BME280;48842;51.046;13.796;2024-02-26T06:34:59;99137.19;;;6.00;nan
62800;BME280;48842;51.046;13.796;2024-02-26T06:37:24;99139.78;;;6.03;nan
62800;BME280;48842;51.046;13.796;2024-02-26T06:39:50;99136.31;;;6.09;nan
62800;BME280;48842;51.046;13.796;2024-02-26T06:42:17;99130.25;;;6.15;nan
62800;BME280;48842;51.046;13.796;2024-02-26T06:44:42;99138.94;;;6.20;nan
62800;BME280;48842;51.046;13.796;2024-02-26T06:47:07;99131.16;;;6.23;nan
62800;BME280;48842;51.046;13.796;2024-02-26T06:49:33;99128.53;;;6.26;nan
62800;BME280;48842;51.046;13.796;2024-02-26T06:51:58;99124.22;;;6.31;nan
62800;BME280;48842;51.046;13.796;2024-02-26T06:54:23;99125.09;;;6.38;nan
62800;BME280;48842;51.046;13.796;2024-02-26T06:56:49;99123.38;;;6.44;nan
62800;BME280;48842;51.046;13.796;2024-02-26T06:59:14;99120.75;;;6.52;nan
62800;BME280;48842;51.046;13.796;2024-02-26T07:01:42;99124.25;;;6.59;nan
62800;BME280;48842;51.046;13.796;2024-02-26T07:04:07;99120.78;;;6.66;nan
62800;BME280;48842;51.046;13.796;2024-02-26T07:06:32;99130.31;;;6.75;nan
62800;BME280;48842;51.046;13.796;2024-02-26T07:08:58;99132.91;;;6.84;nan
62800;BME280;48842;51.046;13.796;2024-02-26T07:11:23;99132.03;;;6.93;nan
62800;BME280;48842;51.046;13.796;2024-02-26T07:13:48;99137.22;;;7.05;nan
62800;BME280;48842;51.046;13.796;2024-02-26T07:16:17;99128.53;;;7.15;nan
62800;BME280;48842;51.046;13.796;2024-02-26T07:18:43;99127.66;;;7.27;nan
62800;BME280;48842;51.046;13.796;2024-02-26T07:21:14;99131.06;;;7.39;nan
62800;BME280;48842;51.046;13.796;2024-02-26T07:23:39;99129.31;;;7.47;nan
62800;BME280;48842;51.046;13.796;2024-02-26T07:26:04;99123.22;;;7.53;nan
62800;BME280;48842;51.046;13.796;2024-02-26T07:28:29;99129.25;;;7.59;nan
62800;BME280;48842;51.046;13.796;2024-02-26T07:30:55;99130.09;;;7.69;nan
62800;BME280;48842;51.046;13.796;2024-02-26T07:33:20;99123.97;;;7.78;nan
62800;BME280;48842;51.046;13.796;2024-02-26T07:35:46;99121.34;;;7.84;nan
62800;BME280;48842;51.046;13.796;2024-02-26T07:38:11;99130.03;;;7.84;nan
62800;BME280;48842;51.046;13.796;2024-02-26T07:40:38;99128.28;;;7.86;nan
62800;BME280;48842;51.046;13.796;2024-02-26T07:43:03;99130.03;;;7.88;nan
62800;BME280;48842;51.046;13.796;2024-02-26T07:45:29;99133.47;;;7.88;nan
62800;BME280;48842;51.046;13.796;2024-02-26T07:47:54;99121.34;;;7.89;nan
62800;BME280;48842;51.046;13.796;2024-02-26T07:50:19;99133.47;;;7.93;nan
62800;BME280;48842;51.046;13.796;2024-02-26T07:52:45;99126.50;;;7.98;nan
62800;BME280;48842;51.046;13.796;2024-02-26T07:55:10;99130.78;;;8.07;nan
62800;BME280;48842;51.046;13.796;2024-02-26T07:57:35;99126.41;;;8.16;nan
62800;BME280;48842;51.046;13.796;2024-02-26T08:00:02;99127.19;;;8.25;nan
62800;BME280;48842;51.046;13.796;2024-02-26T08:02:28;99128.03;;;8.33;nan
62800;BME280;48842;51.046;13.796;2024-02-26T08:04:53;99125.34;;;8.41;nan
62800;BME280;48842;51.046;13.796;2024-02-26T08:07:19;99121.84;;;8.48;nan
62800;BME280;48842;51.046;13.796;2024-02-26T08:09:45;99129.63;;;8.55;nan
62800;BME280;48842;51.046;13.796;2024-02-26T08:12:11;99126.06;;;8.66;nan
62800;BME280;48842;51.046;13.796;2024-02-26T08:14:36;99120.75;;;8.77;nan
62800;BME280;48842;51.046;13.796;2024-02-26T08:17:01;99122.41;;;8.87;nan
62800;BME280;48842;51.046;13.796;2024-02-26T08:19:28;99123.16;;;9.00;nan
62800;BME280;48842;51.046;13.796;2024-02-26T08:21:53;99125.59;;;9.15;nan
62800;BME280;48842;51.046;13.796;2024-02-26T08:24:19;99135.06;;;9.30;nan
62800;BME280;48842;51.046;13.796;2024-02-26T08:26:45;99127.09;;;9.41;nan
62800;BME280;48842;51.046;13.796;2024-02-26T08:29:10;99133.06;;;9.52;nan
62800;BME280;48842;51.046;13.796;2024-02-26T08:31:35;99137.28;;;9.64;nan
62800;BME280;48842;51.046;13.796;2024-02-26T08:34:05;99131.03;;;9.76;nan
62800;BME280;48842;51.046;13.796;2024-02-26T08:36:33;99134.41;;;9.87;nan
62800;BME280;48842;51.046;13.796;2024-02-26T08:38:58;99138.59;;;9.99;nan
62800;BME280;48842;51.046;13.796;2024-02-26T08:41:23;99135.88;;;10.07;nan
62800;BME280;48842;51.046;13.796;2024-02-26T08:43:49;99135.78;;;10.13;nan
62800;BME280;48842;51.046;13.796;2024-02-26T08:46:14;99130.47;;;10.18;nan
62800;BME280;48842;51.046;13.796;2024-02-26T08:48:40;99131.31;;;10.21;nan
62800;BME280;48842;51.046;13.796;2024-02-26T08:51:08;99133.81;;;10.27;nan
62800;BME280;48842;51.046;13.796;2024-02-26T08:53:34;99136.34;;;10.35;nan
62800;BME280;48842;51.046;13.796;2024-02-26T08:56:00;99132.75;;;10.42;nan
62800;BME280;48842;51.046;13.796;2024-02-26T08:58:27;99130.94;;;10.49;nan
62800;BME280;48842;51.046;13.796;2024-02-26T09:00:52;99132.56;;;10.56;nan
62800;BME280;48842;51.046;13.796;2024-02-26T09:03:17;99140.28;;;10.64;nan
62800;BME280;48842;51.046;13.796;2024-02-26T09:05:43;99138.41;;;10.72;nan
62800;BME280;48842;51.046;13.796;2024-02-26T09:08:08;99147.06;;;10.77;nan
62800;BME280;48842;51.046;13.796;2024-02-26T09:10:33;99144.41;;;10.79;nan
62800;BME280;48842;51.046;13.796;2024-02-26T09:12:59;99126.03;;;10.82;nan
62800;BME280;48842;51.046;13.796;2024-02-26T09:15:24;99124.19;;;10.87;nan
62800;BME280;48842;51.046;13.796;2024-02-26T09:17:49;99130.25;;;10.92;nan
62800;BME280;48842;51.046;13.796;2024-02-26T09:20:15;99127.50;;;10.98;nan
62800;BME280;48842;51.046;13.796;2024-02-26T09:22:44;99112.28;;;11.19;nan
62800;BME280;48842;51.046;13.796;2024-02-26T09:25:10;99119.06;;;11.29;nan
62800;BME280;48842;51.046;13.796;2024-02-26T09:27:35;99119.84;;;11.34;nan
62800;BME280;48842;51.046;13.796;2024-02-26T09:30:00;99131.13;;;11.40;nan
62800;BME280;48842;51.046;13.796;2024-02-26T09:32:25;99132.75;;;11.45;nan
62800;BME280;48842;51.046;13.796;2024-02-26T09:34:51;99130.91;;;11.50;nan
62800;BME280;48842;51.046;13.796;2024-02-26T09:37:16;99141.31;;;11.55;nan
62800;BME280;48842;51.046;13.796;2024-02-26T09:39:42;99137.69;;;11.62;nan
62800;BME280;48842;51.046;13.796;2024-02-26T09:42:09;99140.16;;;11.70;nan
62800;BME280;48842;51.046;13.796;2024-02-26T09:44:36;99135.63;;;11.77;nan
62800;BME280;48842;51.046;13.796;2024-02-26T09:47:05;99134.63;;;11.82;nan
62800;BME280;48842;51.046;13.796;2024-02-26T09:49:30;99138.00;;;11.89;nan
62800;BME280;48842;51.046;13.796;2024-02-26T09:51:56;99142.25;;;11.96;nan
62800;BME280;48842;51.046;13.796;2024-02-26T09:54:23;99131.66;;;12.01;nan
62800;BME280;48842;51.046;13.796;2024-02-26T09:56:51;99135.88;;;12.08;nan
62800;BME280;48842;51.046;13.796;2024-02-26T09:59:19;99135.69;;;12.16;nan
62800;BME280;48842;51.046;13.796;2024-02-26T10:01:45;99138.16;;;12.23;nan
62800;BME280;48842;51.046;13.796;2024-02-26T10:04:12;99140.66;;;12.30;nan
62800;BME280;48842;51.046;13.796;2024-02-26T10:06:37;99142.22;;;12.38;nan
62800;BME280;48842;51.046;13.796;2024-02-26T10:09:03;99144.63;;;12.48;nan
62800;BME280;48842;51.046;13.796;2024-02-26T10:11:31;99146.09;;;12.60;nan
62800;BME280;48842;51.046;13.796;2024-02-26T10:13:57;99148.47;;;12.70;nan
62800;BME280;48842;51.046;13.796;2024-02-26T10:16:22;99156.97;;;12.80;nan
62800;BME280;48842;51.046;13.796;2024-02-26T10:18:52;99160.31;;;12.87;nan
62800;BME280;48842;51.046;13.796;2024-02-26T10:21:20;99156.81;;;12.88;nan
62800;BME280;48842;51.046;13.796;2024-02-26T10:23:45;99162.06;;;12.86;nan
62800;BME280;48842;51.046;13.796;2024-02-26T10:26:12;99159.44;;;12.86;nan
62800;BME280;48842;51.046;13.796;2024-02-26T10:28:39;99148.97;;;12.85;nan
62800;BME280;48842;51.046;13.796;2024-02-26T10:31:05;99152.44;;;12.87;nan
62800;BME280;48842;51.046;13.796;2024-02-26T10:33:33;99154.13;;;12.89;nan
62800;BME280;48842;51.046;13.796;2024-02-26T10:36:00;99154.09;;;12.91;nan
62800;BME280;48842;51.046;13.796;2024-02-26T10:38:26;99147.88;;;12.93;nan
62800;BME280;48842;51.046;13.796;2024-02-26T10:40:51;99152.19;;;12.96;nan
62800;BME280;48842;51.046;13.796;2024-02-26T10:43:16;99150.41;;;12.98;nan
62800;BME280;48842;51.046;13.796;2024-02-26T10:45:43;99152.97;;;13.01;nan
62800;BME280;48842;51.046;13.796;2024-02-26T10:48:10;99148.59;;;13.00;nan
62800;BME280;48842;51.046;13.796;2024-02-26T10:50:37;99152.13;;;12.99;nan
62800;BME280;48842;51.046;13.796;2024-02-26T10:53:05;99162.59;;;13.01;nan
62800;BME280;48842;51.046;13.796;2024-02-26T10:55:33;99160.84;;;13.01;nan
62800;BME280;48842;51.046;13.796;2024-02-26T10:58:00;99157.25;;;13.05;nan
62800;BME280;48842;51.046;13.796;2024-02-26T11:00:26;99156.22;;;13.09;nan
62800;BME280;48842;51.046;13.796;2024-02-26T11:02:54;99149.16;;;13.13;nan
62800;BME280;48842;51.046;13.796;2024-02-26T11:05:20;99149.91;;;13.17;nan
62800;BME280;48842;51.046;13.796;2024-02-26T11:07:46;99146.28;;;13.22;nan
62800;BME280;48842;51.046;13.796;2024-02-26T11:10:13;99155.78;;;13.28;nan
62800;BME280;48842;51.046;13.796;2024-02-26T11:12:41;99160.00;;;13.35;nan
62800;BME280;48842;51.046;13.796;2024-02-26T11:15:07;99149.25;;;13.43;nan
62800;BME280;48842;51.046;13.796;2024-02-26T11:17:33;99151.69;;;13.51;nan
62800;BME280;48842;51.046;13.796;2024-02-26T11:20:00;99150.50;;;13.63;nan
62800;BME280;48842;51.046;13.796;2024-02-26T11:22:28;99144.81;;;13.76;nan
62800;BME280;48842;51.046;13.796;2024-02-26T11:24:54;99146.28;;;13.87;nan
62800;BME280;48842;51.046;13.796;2024-02-26T11:27:26;99140.69;;;13.99;nan
62800;BME280;48842;51.046;13.796;2024-02-26T11:29:56;99134.19;;;14.11;nan
62800;BME280;48842;51.046;13.796;2024-02-26T11:32:26;99132.19;;;14.18;nan
62800;BME280;48842;51.046;13.796;2024-02-26T11:34:52;99144.16;;;14.29;nan
62800;BME280;48842;51.046;13.796;2024-02-26T11:37:19;99142.91;;;14.41;nan
62800;BME280;48842;51.046;13.796;2024-02-26T11:39:45;99144.44;;;14.48;nan
62800;BME280;48842;51.046;13.796;2024-02-26T11:42:14;99139.06;;;14.52;nan
62800;BME280;48842;51.046;13.796;2024-02-26T11:44:39;99141.63;;;14.55;nan
62800;BME280;48842;51.046;13.796;2024-02-26T11:47:14;99129.28;;;14.55;nan
62800;BME280;48842;51.046;13.796;2024-02-26T11:49:42;99142.25;;;14.63;nan
62800;BME280;48842;51.046;13.796;2024-02-26T11:52:08;99135.75;;;14.73;nan
62800;BME280;48842;51.046;13.796;2024-02-26T11:54:46;99136.47;;;14.78;nan
62800;BME280;48842;51.046;13.796;2024-02-26T11:59:51;99134.53;;;14.85;nan
62800;BME280;48842;51.046;13.796;2024-02-26T12:02:39;99129.19;;;14.87;nan
62800;BME280;48842;51.046;13.796;2024-02-26T12:05:13;99139.59;;;14.91;nan
62800;BME280;48842;51.046;13.796;2024-02-26T12:07:40;99136.72;;;14.97;nan
62800;BME280;48842;51.046;13.796;2024-02-26T12:10:21;99132.25;;;14.99;nan
62800;BME280;48842;51.046;13.796;2024-02-26T12:12:53;99135.78;;;15.00;nan
62800;BME280;48842;51.046;13.796;2024-02-26T12:15:18;99133.19;;;14.98;nan
62800;BME280;48842;51.046;13.796;2024-02-26T12:17:48;99141.03;;;15.00;nan
62800;BME280;48842;51.046;13.796;2024-02-26T12:20:14;99146.22;;;15.03;nan
62800;BME280;48842;51.046;13.796;2024-02-26T12:22:44;99144.31;;;15.07;nan
62800;BME280;48842;51.046;13.796;2024-02-26T12:25:10;99146.00;;;15.09;nan
62800;BME280;48842;51.046;13.796;2024-02-26T12:27:35;99151.28;;;15.09;nan
62800;BME280;48842;51.046;13.796;2024-02-26T12:30:02;99151.28;;;15.09;nan
62800;BME280;48842;51.046;13.796;2024-02-26T12:32:28;99154.75;;;15.11;nan
62800;BME280;48842;51.046;13.796;2024-02-26T12:34:53;99149.47;;;15.10;nan
62800;BME280;48842;51.046;13.796;2024-02-26T12:37:18;99149.47;;;15.11;nan
62800;BME280;48842;51.046;13.796;2024-02-26T12:39:44;99149.47;;;15.11;nan
62800;BME280;48842;51.046;13.796;2024-02-26T12:42:11;99151.13;;;15.14;nan
62800;BME280;48842;51.046;13.796;2024-02-26T12:44:37;99150.31;;;15.12;nan
62800;BME280;48842;51.046;13.796;2024-02-26T12:47:03;99146.84;;;15.10;nan
62800;BME280;48842;51.046;13.796;2024-02-26T12:49:29;99146.84;;;15.10;nan
62800;BME280;48842;51.046;13.796;2024-02-26T12:51:54;99138.03;;;15.11;nan
62800;BME280;48842;51.046;13.796;2024-02-26T12:54:26;99136.22;;;15.13;nan
62800;BME280;48842;51.046;13.796;2024-02-26T12:56:51;99144.09;;;15.14;nan
62800;BME280;48842;51.046;13.796;2024-02-26T12:59:17;99145.78;;;15.15;nan
62800;BME280;48842;51.046;13.796;2024-02-26T13:01:42;99137.06;;;15.13;nan
62800;BME280;48842;51.046;13.796;2024-02-26T13:04:08;99150.41;;;15.09;nan
62800;BME280;48842;51.046;13.796;2024-02-26T13:06:33;99149.75;;;15.02;nan
62800;BME280;48842;51.046;13.796;2024-02-26T13:09:00;99150.72;;;14.99;nan
62800;BME280;48842;51.046;13.796;2024-02-26T13:11:27;99156.81;;;15.01;nan
62800;BME280;48842;51.046;13.796;2024-02-26T13:13:54;99159.34;;;15.05;nan